sensor_id;sensor_type;location;lat;lon;timestamp;P1;durP1;ratioP1;P2;durP2;ratioP2
37288;SDS011;23174;49.462;11.000;2022-10-24T00:00:21;1.80;;;0.93;;
37288;SDS011;23174;49.462;11.000;2022-10-24T00:02:22;7.38;;;1.30;;
37288;SDS011;23174;49.462;11.000;2022-10-24T00:04:23;3.83;;;1.02;;
37288;SDS011;23174;49.462;11.000;2022-10-24T00:06:23;2.72;;;0.75;;
37288;SDS011;23174;49.462;11.000;2022-10-24T00:08:24;0.50;;;0.47;;
37288;SDS011;23174;49.462;11.000;2022-10-24T00:10:24;5.18;;;1.45;;
37288;SDS011;23174;49.462;11.000;2022-10-24T00:12:25;4.07;;;0.82;;
37288;SDS011;23174;49.462;11.000;2022-10-24T00:14:26;5.45;;;1.30;;
37288;SDS011;23174;49.462;11.000;2022-10-24T00:16:26;2.60;;;0.38;;
37288;SDS011;23174;49.462;11.000;2022-10-24T00:18:27;1.88;;;0.80;;
37288;SDS011;23174;49.462;11.000;2022-10-24T00:20:28;1.60;;;0.28;;
37288;SDS011;23174;49.462;11.000;2022-10-24T00:22:29;3.08;;;0.75;;
37288;SDS011;23174;49.462;11.000;2022-10-24T00:24:29;3.10;;;1.20;;
37288;SDS011;23174;49.462;11.000;2022-10-24T00:26:30;3.10;;;0.52;;
37288;SDS011;23174;49.462;11.000;2022-10-24T00:28:32;2.53;;;1.00;;
37288;SDS011;23174;49.462;11.000;2022-10-24T00:30:34;5.07;;;0.90;;
37288;SDS011;23174;49.462;11.000;2022-10-24T00:32:35;4.90;;;1.85;;
37288;SDS011;23174;49.462;11.000;2022-10-24T00:34:36;4.15;;;1.15;;
37288;SDS011;23174;49.462;11.000;2022-10-24T00:36:36;2.15;;;0.93;;
37288;SDS011;23174;49.462;11.000;2022-10-24T00:38:37;1.30;;;0.75;;
37288;SDS011;23174;49.462;11.000;2022-10-24T00:40:38;2.00;;;0.65;;
37288;SDS011;23174;49.462;11.000;2022-10-24T00:42:39;1.08;;;0.57;;
37288;SDS011;23174;49.462;11.000;2022-10-24T00:44:40;2.03;;;0.57;;
37288;SDS011;23174;49.462;11.000;2022-10-24T00:46:42;0.60;;;0.28;;
37288;SDS011;23174;49.462;11.000;2022-10-24T00:49:04;0.68;;;0.68;;
37288;SDS011;23174;49.462;11.000;2022-10-24T00:53:17;1.67;;;0.85;;
37288;SDS011;23174;49.462;11.000;2022-10-24T00:55:19;3.25;;;0.38;;
37288;SDS011;23174;49.462;11.000;2022-10-24T00:57:24;0.47;;;0.43;;
37288;SDS011;23174;49.462;11.000;2022-10-24T00:59:29;1.45;;;0.85;;
37288;SDS011;23174;49.462;11.000;2022-10-24T01:01:31;4.10;;;1.00;;
37288;SDS011;23174;49.462;11.000;2022-10-24T01:03:33;0.20;;;0.10;;
37288;SDS011;23174;49.462;11.000;2022-10-24T01:05:36;3.60;;;0.60;;
37288;SDS011;23174;49.462;11.000;2022-10-24T01:10:38;7.53;;;1.13;;
37288;SDS011;23174;49.462;11.000;2022-10-24T01:12:58;1.77;;;0.77;;
37288;SDS011;23174;49.462;11.000;2022-10-24T01:15:41;1.15;;;0.55;;
37288;SDS011;23174;49.462;11.000;2022-10-24T01:17:59;2.92;;;0.60;;
37288;SDS011;23174;49.462;11.000;2022-10-24T01:22:22;0.63;;;0.40;;
37288;SDS011;23174;49.462;11.000;2022-10-24T01:29:35;2.08;;;1.20;;
37288;SDS011;23174;49.462;11.000;2022-10-24T01:34:10;0.77;;;0.30;;
37288;SDS011;23174;49.462;11.000;2022-10-24T01:36:32;2.42;;;0.70;;
37288;SDS011;23174;49.462;11.000;2022-10-24T01:38:51;2.05;;;0.20;;
37288;SDS011;23174;49.462;11.000;2022-10-24T01:40:56;2.00;;;0.65;;
37288;SDS011;23174;49.462;11.000;2022-10-24T01:43:10;0.68;;;0.43;;
37288;SDS011;23174;49.462;11.000;2022-10-24T01:45:13;2.85;;;0.40;;
37288;SDS011;23174;49.462;11.000;2022-10-24T01:47:18;1.35;;;0.70;;
37288;SDS011;23174;49.462;11.000;2022-10-24T01:49:32;4.82;;;0.80;;
37288;SDS011;23174;49.462;11.000;2022-10-24T01:51:35;1.25;;;0.40;;
37288;SDS011;23174;49.462;11.000;2022-10-24T01:53:37;1.92;;;0.95;;
37288;SDS011;23174;49.462;11.000;2022-10-24T01:55:38;3.33;;;0.65;;
37288;SDS011;23174;49.462;11.000;2022-10-24T01:57:40;0.45;;;0.40;;
37288;SDS011;23174;49.462;11.000;2022-10-24T01:59:43;1.75;;;0.70;;
37288;SDS011;23174;49.462;11.000;2022-10-24T02:01:45;4.82;;;1.08;;
37288;SDS011;23174;49.462;11.000;2022-10-24T02:03:47;3.20;;;0.90;;
37288;SDS011;23174;49.462;11.000;2022-10-24T02:05:52;2.35;;;0.88;;
37288;SDS011;23174;49.462;11.000;2022-10-24T02:08:00;1.23;;;0.85;;
37288;SDS011;23174;49.462;11.000;2022-10-24T02:10:05;1.75;;;0.93;;
37288;SDS011;23174;49.462;11.000;2022-10-24T02:12:10;2.03;;;1.42;;
37288;SDS011;23174;49.462;11.000;2022-10-24T02:16:18;2.65;;;0.60;;
37288;SDS011;23174;49.462;11.000;2022-10-24T02:18:19;1.75;;;0.73;;
37288;SDS011;23174;49.462;11.000;2022-10-24T02:20:34;2.67;;;0.77;;
37288;SDS011;23174;49.462;11.000;2022-10-24T02:22:50;4.55;;;0.80;;
37288;SDS011;23174;49.462;11.000;2022-10-24T02:27:11;2.97;;;0.80;;
37288;SDS011;23174;49.462;11.000;2022-10-24T02:31:37;4.13;;;0.85;;
37288;SDS011;23174;49.462;11.000;2022-10-24T02:33:41;1.80;;;0.57;;
37288;SDS011;23174;49.462;11.000;2022-10-24T02:35:43;1.98;;;0.88;;
37288;SDS011;23174;49.462;11.000;2022-10-24T02:37:48;4.60;;;1.55;;
37288;SDS011;23174;49.462;11.000;2022-10-24T02:39:52;3.35;;;1.38;;
37288;SDS011;23174;49.462;11.000;2022-10-24T02:41:55;2.17;;;0.90;;
37288;SDS011;23174;49.462;11.000;2022-10-24T02:43:57;2.20;;;0.90;;
37288;SDS011;23174;49.462;11.000;2022-10-24T02:45:59;2.92;;;0.70;;
37288;SDS011;23174;49.462;11.000;2022-10-24T02:48:02;4.15;;;0.98;;
37288;SDS011;23174;49.462;11.000;2022-10-24T02:50:07;1.50;;;0.68;;
37288;SDS011;23174;49.462;11.000;2022-10-24T02:52:08;2.03;;;1.00;;
37288;SDS011;23174;49.462;11.000;2022-10-24T02:54:09;3.80;;;0.90;;
37288;SDS011;23174;49.462;11.000;2022-10-24T02:56:10;2.63;;;1.33;;
37288;SDS011;23174;49.462;11.000;2022-10-24T02:58:10;4.88;;;1.15;;
37288;SDS011;23174;49.462;11.000;2022-10-24T03:00:11;2.38;;;1.10;;
37288;SDS011;23174;49.462;11.000;2022-10-24T03:02:12;5.18;;;1.25;;
37288;SDS011;23174;49.462;11.000;2022-10-24T03:04:12;3.55;;;1.00;;
37288;SDS011;23174;49.462;11.000;2022-10-24T03:06:13;1.30;;;0.70;;
37288;SDS011;23174;49.462;11.000;2022-10-24T03:08:14;3.25;;;1.02;;
37288;SDS011;23174;49.462;11.000;2022-10-24T03:10:14;2.85;;;0.90;;
37288;SDS011;23174;49.462;11.000;2022-10-24T03:12:15;4.43;;;1.25;;
37288;SDS011;23174;49.462;11.000;2022-10-24T03:14:16;4.85;;;1.83;;
37288;SDS011;23174;49.462;11.000;2022-10-24T03:16:16;6.47;;;1.00;;
37288;SDS011;23174;49.462;11.000;2022-10-24T03:18:17;4.68;;;1.35;;
37288;SDS011;23174;49.462;11.000;2022-10-24T03:20:18;3.35;;;1.08;;
37288;SDS011;23174;49.462;11.000;2022-10-24T03:22:18;3.53;;;1.30;;
37288;SDS011;23174;49.462;11.000;2022-10-24T03:24:19;3.00;;;0.65;;
37288;SDS011;23174;49.462;11.000;2022-10-24T03:26:19;2.40;;;1.10;;
37288;SDS011;23174;49.462;11.000;2022-10-24T03:28:20;1.90;;;0.80;;
37288;SDS011;23174;49.462;11.000;2022-10-24T03:30:21;3.60;;;1.00;;
37288;SDS011;23174;49.462;11.000;2022-10-24T03:32:21;5.05;;;1.00;;
37288;SDS011;23174;49.462;11.000;2022-10-24T03:34:22;4.75;;;1.83;;
37288;SDS011;23174;49.462;11.000;2022-10-24T03:36:23;3.38;;;1.10;;
37288;SDS011;23174;49.462;11.000;2022-10-24T03:38:23;5.10;;;0.95;;
37288;SDS011;23174;49.462;11.000;2022-10-24T03:40:24;4.18;;;1.23;;
37288;SDS011;23174;49.462;11.000;2022-10-24T03:42:25;2.28;;;1.00;;
37288;SDS011;23174;49.462;11.000;2022-10-24T03:44:25;3.35;;;1.27;;
37288;SDS011;23174;49.462;11.000;2022-10-24T03:46:26;4.70;;;0.88;;
37288;SDS011;23174;49.462;11.000;2022-10-24T03:48:27;6.80;;;1.17;;
37288;SDS011;23174;49.462;11.000;2022-10-24T03:50:27;3.20;;;1.45;;
37288;SDS011;23174;49.462;11.000;2022-10-24T03:52:28;2.75;;;1.00;;
37288;SDS011;23174;49.462;11.000;2022-10-24T03:54:28;2.72;;;1.10;;
37288;SDS011;23174;49.462;11.000;2022-10-24T03:56:29;6.30;;;1.42;;
37288;SDS011;23174;49.462;11.000;2022-10-24T03:58:29;3.40;;;1.00;;
37288;SDS011;23174;49.462;11.000;2022-10-24T04:00:30;3.53;;;1.63;;
37288;SDS011;23174;49.462;11.000;2022-10-24T04:02:33;2.78;;;1.40;;
37288;SDS011;23174;49.462;11.000;2022-10-24T04:04:34;2.08;;;1.10;;
37288;SDS011;23174;49.462;11.000;2022-10-24T04:06:34;2.67;;;1.20;;
37288;SDS011;23174;49.462;11.000;2022-10-24T04:08:35;2.65;;;1.05;;
37288;SDS011;23174;49.462;11.000;2022-10-24T04:10:36;4.15;;;1.40;;
37288;SDS011;23174;49.462;11.000;2022-10-24T04:12:36;4.18;;;1.30;;
37288;SDS011;23174;49.462;11.000;2022-10-24T04:14:37;4.68;;;1.23;;
37288;SDS011;23174;49.462;11.000;2022-10-24T04:16:40;2.67;;;1.38;;
37288;SDS011;23174;49.462;11.000;2022-10-24T04:18:40;5.03;;;1.45;;
37288;SDS011;23174;49.462;11.000;2022-10-24T04:20:41;3.90;;;1.15;;
37288;SDS011;23174;49.462;11.000;2022-10-24T04:22:41;3.30;;;2.25;;
37288;SDS011;23174;49.462;11.000;2022-10-24T04:24:42;5.00;;;1.00;;
37288;SDS011;23174;49.462;11.000;2022-10-24T04:26:43;3.30;;;1.52;;
37288;SDS011;23174;49.462;11.000;2022-10-24T04:28:43;6.35;;;1.30;;
37288;SDS011;23174;49.462;11.000;2022-10-24T04:30:45;2.55;;;1.10;;
37288;SDS011;23174;49.462;11.000;2022-10-24T04:32:46;4.15;;;1.40;;
37288;SDS011;23174;49.462;11.000;2022-10-24T04:34:47;4.80;;;1.15;;
37288;SDS011;23174;49.462;11.000;2022-10-24T04:36:47;3.55;;;1.30;;
37288;SDS011;23174;49.462;11.000;2022-10-24T04:38:48;2.72;;;1.35;;
37288;SDS011;23174;49.462;11.000;2022-10-24T04:40:49;5.60;;;1.58;;
37288;SDS011;23174;49.462;11.000;2022-10-24T04:42:51;5.10;;;1.40;;
37288;SDS011;23174;49.462;11.000;2022-10-24T04:44:51;5.43;;;1.67;;
37288;SDS011;23174;49.462;11.000;2022-10-24T04:46:52;4.82;;;1.73;;
37288;SDS011;23174;49.462;11.000;2022-10-24T04:48:53;3.00;;;1.80;;
37288;SDS011;23174;49.462;11.000;2022-10-24T04:50:53;4.15;;;2.20;;
37288;SDS011;23174;49.462;11.000;2022-10-24T04:52:54;7.65;;;1.80;;
37288;SDS011;23174;49.462;11.000;2022-10-24T04:54:54;3.53;;;1.38;;
37288;SDS011;23174;49.462;11.000;2022-10-24T04:56:55;3.15;;;1.60;;
37288;SDS011;23174;49.462;11.000;2022-10-24T04:58:55;4.18;;;1.50;;
37288;SDS011;23174;49.462;11.000;2022-10-24T05:00:56;6.60;;;2.10;;
37288;SDS011;23174;49.462;11.000;2022-10-24T05:02:56;3.17;;;1.48;;
37288;SDS011;23174;49.462;11.000;2022-10-24T05:04:57;6.03;;;1.65;;
37288;SDS011;23174;49.462;11.000;2022-10-24T05:06:58;2.83;;;1.48;;
37288;SDS011;23174;49.462;11.000;2022-10-24T05:08:58;2.35;;;1.15;;
37288;SDS011;23174;49.462;11.000;2022-10-24T05:10:59;3.60;;;1.30;;
37288;SDS011;23174;49.462;11.000;2022-10-24T05:12:59;4.30;;;1.10;;
37288;SDS011;23174;49.462;11.000;2022-10-24T05:15:00;4.15;;;1.30;;
37288;SDS011;23174;49.462;11.000;2022-10-24T05:17:01;7.45;;;1.90;;
37288;SDS011;23174;49.462;11.000;2022-10-24T05:19:02;3.60;;;1.90;;
37288;SDS011;23174;49.462;11.000;2022-10-24T05:21:02;10.27;;;2.60;;
37288;SDS011;23174;49.462;11.000;2022-10-24T05:23:03;8.32;;;2.67;;
37288;SDS011;23174;49.462;11.000;2022-10-24T05:25:04;5.82;;;2.85;;
37288;SDS011;23174;49.462;11.000;2022-10-24T05:27:05;11.30;;;2.80;;
37288;SDS011;23174;49.462;11.000;2022-10-24T05:29:11;6.32;;;2.15;;
37288;SDS011;23174;49.462;11.000;2022-10-24T05:31:18;6.15;;;1.65;;
37288;SDS011;23174;49.462;11.000;2022-10-24T05:33:19;4.00;;;1.85;;
37288;SDS011;23174;49.462;11.000;2022-10-24T05:35:22;4.50;;;1.40;;
37288;SDS011;23174;49.462;11.000;2022-10-24T05:37:22;3.08;;;1.48;;
37288;SDS011;23174;49.462;11.000;2022-10-24T05:39:23;6.13;;;1.42;;
37288;SDS011;23174;49.462;11.000;2022-10-24T05:41:23;2.95;;;1.48;;
37288;SDS011;23174;49.462;11.000;2022-10-24T05:43:24;3.40;;;1.52;;
37288;SDS011;23174;49.462;11.000;2022-10-24T05:45:25;4.03;;;1.92;;
37288;SDS011;23174;49.462;11.000;2022-10-24T05:47:25;4.05;;;1.42;;
37288;SDS011;23174;49.462;11.000;2022-10-24T05:49:26;6.65;;;1.10;;
37288;SDS011;23174;49.462;11.000;2022-10-24T05:51:26;3.58;;;1.67;;
37288;SDS011;23174;49.462;11.000;2022-10-24T05:53:27;6.18;;;1.40;;
37288;SDS011;23174;49.462;11.000;2022-10-24T05:55:28;14.23;;;2.00;;
37288;SDS011;23174;49.462;11.000;2022-10-24T05:57:30;7.22;;;1.48;;
37288;SDS011;23174;49.462;11.000;2022-10-24T05:59:30;7.78;;;2.20;;
37288;SDS011;23174;49.462;11.000;2022-10-24T06:01:31;5.43;;;1.63;;
37288;SDS011;23174;49.462;11.000;2022-10-24T06:03:32;4.88;;;1.95;;
37288;SDS011;23174;49.462;11.000;2022-10-24T06:05:32;3.20;;;1.60;;
37288;SDS011;23174;49.462;11.000;2022-10-24T06:07:33;6.15;;;1.85;;
37288;SDS011;23174;49.462;11.000;2022-10-24T06:09:34;6.88;;;1.88;;
37288;SDS011;23174;49.462;11.000;2022-10-24T06:11:34;4.60;;;1.98;;
37288;SDS011;23174;49.462;11.000;2022-10-24T06:13:35;6.03;;;1.75;;
37288;SDS011;23174;49.462;11.000;2022-10-24T06:15:36;8.43;;;1.60;;
37288;SDS011;23174;49.462;11.000;2022-10-24T06:17:37;8.15;;;1.73;;
37288;SDS011;23174;49.462;11.000;2022-10-24T06:19:38;2.28;;;1.27;;
37288;SDS011;23174;49.462;11.000;2022-10-24T06:21:39;3.42;;;1.10;;
37288;SDS011;23174;49.462;11.000;2022-10-24T06:23:39;4.38;;;1.23;;
37288;SDS011;23174;49.462;11.000;2022-10-24T06:25:40;3.00;;;1.15;;
37288;SDS011;23174;49.462;11.000;2022-10-24T06:27:41;2.45;;;1.08;;
37288;SDS011;23174;49.462;11.000;2022-10-24T06:29:42;2.40;;;0.90;;
37288;SDS011;23174;49.462;11.000;2022-10-24T06:31:42;4.72;;;0.45;;
37288;SDS011;23174;49.462;11.000;2022-10-24T06:33:43;2.05;;;0.40;;
37288;SDS011;23174;49.462;11.000;2022-10-24T06:35:43;0.80;;;0.73;;
37288;SDS011;23174;49.462;11.000;2022-10-24T06:37:44;0.98;;;0.80;;
37288;SDS011;23174;49.462;11.000;2022-10-24T06:39:45;1.08;;;0.45;;
37288;SDS011;23174;49.462;11.000;2022-10-24T06:41:45;1.10;;;0.40;;
37288;SDS011;23174;49.462;11.000;2022-10-24T06:43:46;0.15;;;0.15;;
37288;SDS011;23174;49.462;11.000;2022-10-24T06:45:48;1.65;;;0.63;;
37288;SDS011;23174;49.462;11.000;2022-10-24T06:47:49;3.33;;;0.93;;
37288;SDS011;23174;49.462;11.000;2022-10-24T06:49:50;0.43;;;0.43;;
37288;SDS011;23174;49.462;11.000;2022-10-24T06:51:50;0.43;;;0.43;;
37288;SDS011;23174;49.462;11.000;2022-10-24T06:53:51;1.50;;;0.75;;
37288;SDS011;23174;49.462;11.000;2022-10-24T06:55:52;0.43;;;0.43;;
37288;SDS011;23174;49.462;11.000;2022-10-24T06:57:52;5.07;;;0.43;;
37288;SDS011;23174;49.462;11.000;2022-10-24T06:59:53;0.22;;;0.20;;
37288;SDS011;23174;49.462;11.000;2022-10-24T07:01:53;0.75;;;0.68;;
37288;SDS011;23174;49.462;11.000;2022-10-24T07:03:54;1.75;;;0.75;;
37288;SDS011;23174;49.462;11.000;2022-10-24T07:05:54;1.48;;;0.93;;
37288;SDS011;23174;49.462;11.000;2022-10-24T07:07:55;1.02;;;0.63;;
37288;SDS011;23174;49.462;11.000;2022-10-24T07:09:56;0.28;;;0.25;;
37288;SDS011;23174;49.462;11.000;2022-10-24T07:11:57;4.55;;;1.23;;
37288;SDS011;23174;49.462;11.000;2022-10-24T07:13:58;2.63;;;1.05;;
37288;SDS011;23174;49.462;11.000;2022-10-24T07:15:59;1.50;;;1.17;;
37288;SDS011;23174;49.462;11.000;2022-10-24T07:17:59;8.20;;;1.23;;
37288;SDS011;23174;49.462;11.000;2022-10-24T07:20:00;4.07;;;1.63;;
37288;SDS011;23174;49.462;11.000;2022-10-24T07:22:00;2.55;;;0.70;;
37288;SDS011;23174;49.462;11.000;2022-10-24T07:24:01;7.95;;;1.98;;
37288;SDS011;23174;49.462;11.000;2022-10-24T07:26:06;2.05;;;0.82;;
37288;SDS011;23174;49.462;11.000;2022-10-24T07:28:08;1.55;;;0.68;;
37288;SDS011;23174;49.462;11.000;2022-10-24T07:30:12;3.95;;;1.73;;
37288;SDS011;23174;49.462;11.000;2022-10-24T07:32:17;2.25;;;0.77;;
37288;SDS011;23174;49.462;11.000;2022-10-24T07:34:17;0.43;;;0.43;;
37288;SDS011;23174;49.462;11.000;2022-10-24T07:36:19;5.15;;;1.00;;
37288;SDS011;23174;49.462;11.000;2022-10-24T07:38:21;4.50;;;1.08;;
37288;SDS011;23174;49.462;11.000;2022-10-24T07:40:22;1.75;;;0.65;;
37288;SDS011;23174;49.462;11.000;2022-10-24T07:42:22;0.82;;;0.55;;
37288;SDS011;23174;49.462;11.000;2022-10-24T07:44:23;0.10;;;0.10;;
37288;SDS011;23174;49.462;11.000;2022-10-24T07:46:24;1.75;;;0.80;;
37288;SDS011;23174;49.462;11.000;2022-10-24T07:48:24;3.03;;;0.70;;
37288;SDS011;23174;49.462;11.000;2022-10-24T07:50:26;0.82;;;0.82;;
37288;SDS011;23174;49.462;11.000;2022-10-24T07:52:26;1.55;;;0.70;;
37288;SDS011;23174;49.462;11.000;2022-10-24T07:54:27;1.98;;;0.98;;
37288;SDS011;23174;49.462;11.000;2022-10-24T07:56:27;1.25;;;0.50;;
37288;SDS011;23174;49.462;11.000;2022-10-24T07:58:28;0.93;;;0.30;;
37288;SDS011;23174;49.462;11.000;2022-10-24T08:00:29;1.42;;;0.52;;
37288;SDS011;23174;49.462;11.000;2022-10-24T08:02:29;1.33;;;0.88;;
37288;SDS011;23174;49.462;11.000;2022-10-24T08:04:30;1.15;;;0.85;;
37288;SDS011;23174;49.462;11.000;2022-10-24T08:06:31;1.48;;;1.15;;
37288;SDS011;23174;49.462;11.000;2022-10-24T08:08:32;0.38;;;0.30;;
37288;SDS011;23174;49.462;11.000;2022-10-24T08:10:32;1.20;;;0.70;;
37288;SDS011;23174;49.462;11.000;2022-10-24T08:12:33;2.28;;;0.90;;
37288;SDS011;23174;49.462;11.000;2022-10-24T08:14:35;3.85;;;1.30;;
37288;SDS011;23174;49.462;11.000;2022-10-24T08:16:36;10.80;;;2.53;;
37288;SDS011;23174;49.462;11.000;2022-10-24T08:18:38;11.63;;;2.35;;
37288;SDS011;23174;49.462;11.000;2022-10-24T08:20:38;7.05;;;2.40;;
37288;SDS011;23174;49.462;11.000;2022-10-24T08:22:39;9.35;;;2.40;;
37288;SDS011;23174;49.462;11.000;2022-10-24T08:24:41;6.90;;;1.70;;
37288;SDS011;23174;49.462;11.000;2022-10-24T08:26:42;6.00;;;1.50;;
37288;SDS011;23174;49.462;11.000;2022-10-24T08:28:43;0.93;;;0.68;;
37288;SDS011;23174;49.462;11.000;2022-10-24T08:30:56;2.33;;;1.10;;
37288;SDS011;23174;49.462;11.000;2022-10-24T08:32:58;2.95;;;1.75;;
37288;SDS011;23174;49.462;11.000;2022-10-24T08:34:59;3.63;;;1.20;;
37288;SDS011;23174;49.462;11.000;2022-10-24T08:36:59;4.15;;;1.85;;
37288;SDS011;23174;49.462;11.000;2022-10-24T08:39:00;4.38;;;1.65;;
37288;SDS011;23174;49.462;11.000;2022-10-24T08:41:01;4.05;;;1.33;;
37288;SDS011;23174;49.462;11.000;2022-10-24T08:43:02;3.90;;;1.15;;
37288;SDS011;23174;49.462;11.000;2022-10-24T08:45:03;3.35;;;1.00;;
37288;SDS011;23174;49.462;11.000;2022-10-24T08:51:56;2.20;;;1.35;;
37288;SDS011;23174;49.462;11.000;2022-10-24T08:54:00;5.13;;;1.77;;
37288;SDS011;23174;49.462;11.000;2022-10-24T08:56:03;2.45;;;1.52;;
37288;SDS011;23174;49.462;11.000;2022-10-24T08:58:10;4.00;;;1.70;;
37288;SDS011;23174;49.462;11.000;2022-10-24T09:00:17;4.05;;;1.30;;
37288;SDS011;23174;49.462;11.000;2022-10-24T09:02:22;4.68;;;1.40;;
37288;SDS011;23174;49.462;11.000;2022-10-24T09:04:25;7.70;;;2.38;;
37288;SDS011;23174;49.462;11.000;2022-10-24T09:06:33;3.90;;;1.90;;
37288;SDS011;23174;49.462;11.000;2022-10-24T09:08:37;5.30;;;1.30;;
37288;SDS011;23174;49.462;11.000;2022-10-24T09:10:51;2.78;;;0.60;;
37288;SDS011;23174;49.462;11.000;2022-10-24T09:12:58;2.63;;;1.58;;
37288;SDS011;23174;49.462;11.000;2022-10-24T09:14:59;1.58;;;0.82;;
37288;SDS011;23174;49.462;11.000;2022-10-24T09:17:01;1.95;;;1.23;;
37288;SDS011;23174;49.462;11.000;2022-10-24T09:19:29;4.10;;;0.93;;
37288;SDS011;23174;49.462;11.000;2022-10-24T09:21:31;4.43;;;1.50;;
37288;SDS011;23174;49.462;11.000;2022-10-24T09:23:31;2.42;;;0.93;;
37288;SDS011;23174;49.462;11.000;2022-10-24T09:25:35;2.35;;;1.10;;
37288;SDS011;23174;49.462;11.000;2022-10-24T09:27:40;3.33;;;1.30;;
37288;SDS011;23174;49.462;11.000;2022-10-24T09:29:41;4.00;;;1.50;;
37288;SDS011;23174;49.462;11.000;2022-10-24T09:31:42;2.03;;;1.17;;
37288;SDS011;23174;49.462;11.000;2022-10-24T09:33:43;1.55;;;0.95;;
37288;SDS011;23174;49.462;11.000;2022-10-24T09:35:45;1.85;;;1.10;;
37288;SDS011;23174;49.462;11.000;2022-10-24T09:37:48;2.72;;;0.70;;
37288;SDS011;23174;49.462;11.000;2022-10-24T09:40:13;4.57;;;1.10;;
37288;SDS011;23174;49.462;11.000;2022-10-24T09:42:16;2.83;;;0.95;;
37288;SDS011;23174;49.462;11.000;2022-10-24T09:44:38;4.53;;;1.10;;
37288;SDS011;23174;49.462;11.000;2022-10-24T09:46:43;2.70;;;0.85;;
37288;SDS011;23174;49.462;11.000;2022-10-24T09:49:00;0.60;;;0.60;;
37288;SDS011;23174;49.462;11.000;2022-10-24T09:53:41;0.65;;;0.65;;
37288;SDS011;23174;49.462;11.000;2022-10-24T09:55:59;1.90;;;1.27;;
37288;SDS011;23174;49.462;11.000;2022-10-24T09:58:12;4.32;;;1.50;;
37288;SDS011;23174;49.462;11.000;2022-10-24T10:00:20;3.67;;;1.35;;
37288;SDS011;23174;49.462;11.000;2022-10-24T10:02:32;0.60;;;0.55;;
37288;SDS011;23174;49.462;11.000;2022-10-24T10:04:33;4.60;;;1.33;;
37288;SDS011;23174;49.462;11.000;2022-10-24T10:06:34;2.72;;;1.02;;
37288;SDS011;23174;49.462;11.000;2022-10-24T10:08:52;2.95;;;1.55;;
37288;SDS011;23174;49.462;11.000;2022-10-24T10:13:06;3.23;;;1.50;;
37288;SDS011;23174;49.462;11.000;2022-10-24T10:15:16;6.50;;;1.60;;
37288;SDS011;23174;49.462;11.000;2022-10-24T10:17:27;3.28;;;1.27;;
37288;SDS011;23174;49.462;11.000;2022-10-24T10:19:39;7.63;;;1.75;;
37288;SDS011;23174;49.462;11.000;2022-10-24T10:24:00;7.07;;;1.98;;
37288;SDS011;23174;49.462;11.000;2022-10-24T10:26:14;5.47;;;1.50;;
37288;SDS011;23174;49.462;11.000;2022-10-24T10:28:18;2.95;;;1.52;;
37288;SDS011;23174;49.462;11.000;2022-10-24T10:30:21;6.30;;;1.58;;
37288;SDS011;23174;49.462;11.000;2022-10-24T10:32:25;7.35;;;1.85;;
37288;SDS011;23174;49.462;11.000;2022-10-24T10:34:38;5.03;;;1.65;;
37288;SDS011;23174;49.462;11.000;2022-10-24T10:36:50;8.27;;;1.95;;
37288;SDS011;23174;49.462;11.000;2022-10-24T10:43:54;7.53;;;1.65;;
37288;SDS011;23174;49.462;11.000;2022-10-24T10:50:45;9.88;;;2.35;;
37288;SDS011;23174;49.462;11.000;2022-10-24T10:53:00;11.32;;;2.80;;
37288;SDS011;23174;49.462;11.000;2022-10-24T10:57:32;6.18;;;2.45;;
37288;SDS011;23174;49.462;11.000;2022-10-24T10:59:53;6.18;;;2.47;;
37288;SDS011;23174;49.462;11.000;2022-10-24T11:05:06;3.67;;;1.50;;
37288;SDS011;23174;49.462;11.000;2022-10-24T11:11:21;3.20;;;1.05;;
37288;SDS011;23174;49.462;11.000;2022-10-24T11:13:28;5.53;;;1.95;;
37288;SDS011;23174;49.462;11.000;2022-10-24T11:15:35;9.20;;;1.92;;
37288;SDS011;23174;49.462;11.000;2022-10-24T11:20:17;7.05;;;2.05;;
37288;SDS011;23174;49.462;11.000;2022-10-24T11:22:39;4.07;;;1.95;;
37288;SDS011;23174;49.462;11.000;2022-10-24T11:24:55;8.60;;;1.90;;
37288;SDS011;23174;49.462;11.000;2022-10-24T11:27:22;7.65;;;1.70;;
37288;SDS011;23174;49.462;11.000;2022-10-24T11:31:42;5.70;;;1.58;;
37288;SDS011;23174;49.462;11.000;2022-10-24T11:33:54;4.40;;;1.88;;
37288;SDS011;23174;49.462;11.000;2022-10-24T11:36:15;3.28;;;1.60;;
37288;SDS011;23174;49.462;11.000;2022-10-24T11:38:50;4.63;;;1.50;;
37288;SDS011;23174;49.462;11.000;2022-10-24T11:41:14;6.20;;;2.05;;
37288;SDS011;23174;49.462;11.000;2022-10-24T11:43:35;4.15;;;1.38;;
37288;SDS011;23174;49.462;11.000;2022-10-24T11:45:43;4.70;;;0.98;;
37288;SDS011;23174;49.462;11.000;2022-10-24T11:52:23;1.63;;;0.93;;
37288;SDS011;23174;49.462;11.000;2022-10-24T11:54:32;6.45;;;1.90;;
37288;SDS011;23174;49.462;11.000;2022-10-24T11:59:11;4.25;;;1.38;;
37288;SDS011;23174;49.462;11.000;2022-10-24T12:03:51;3.67;;;1.30;;
37288;SDS011;23174;49.462;11.000;2022-10-24T12:06:12;9.13;;;1.42;;
37288;SDS011;23174;49.462;11.000;2022-10-24T12:15:47;5.25;;;1.70;;
37288;SDS011;23174;49.462;11.000;2022-10-24T12:20:12;5.65;;;1.52;;
37288;SDS011;23174;49.462;11.000;2022-10-24T12:22:21;5.28;;;1.27;;
37288;SDS011;23174;49.462;11.000;2022-10-24T12:24:33;2.97;;;1.27;;
37288;SDS011;23174;49.462;11.000;2022-10-24T12:26:37;6.55;;;1.50;;
37288;SDS011;23174;49.462;11.000;2022-10-24T12:28:38;2.53;;;1.38;;
37288;SDS011;23174;49.462;11.000;2022-10-24T12:30:40;4.07;;;1.58;;
37288;SDS011;23174;49.462;11.000;2022-10-24T12:34:55;4.10;;;1.70;;
37288;SDS011;23174;49.462;11.000;2022-10-24T12:39:10;3.65;;;1.02;;
37288;SDS011;23174;49.462;11.000;2022-10-24T12:45:44;3.67;;;1.20;;
37288;SDS011;23174;49.462;11.000;2022-10-24T12:48:28;4.50;;;1.10;;
37288;SDS011;23174;49.462;11.000;2022-10-24T12:54:42;7.03;;;2.15;;
37288;SDS011;23174;49.462;11.000;2022-10-24T12:58:55;3.50;;;1.33;;
37288;SDS011;23174;49.462;11.000;2022-10-24T13:01:00;2.42;;;1.00;;
37288;SDS011;23174;49.462;11.000;2022-10-24T13:03:22;3.85;;;1.27;;
37288;SDS011;23174;49.462;11.000;2022-10-24T13:16:06;3.28;;;1.08;;
37288;SDS011;23174;49.462;11.000;2022-10-24T13:18:21;2.15;;;0.90;;
37288;SDS011;23174;49.462;11.000;2022-10-24T13:20:36;1.77;;;0.75;;
37288;SDS011;23174;49.462;11.000;2022-10-24T13:22:39;6.45;;;1.33;;
37288;SDS011;23174;49.462;11.000;2022-10-24T13:24:41;1.52;;;0.75;;
37288;SDS011;23174;49.462;11.000;2022-10-24T13:26:43;4.20;;;1.20;;
37288;SDS011;23174;49.462;11.000;2022-10-24T13:28:48;7.10;;;1.40;;
37288;SDS011;23174;49.462;11.000;2022-10-24T13:35:31;4.72;;;1.58;;
37288;SDS011;23174;49.462;11.000;2022-10-24T13:37:42;5.80;;;1.25;;
37288;SDS011;23174;49.462;11.000;2022-10-24T13:39:50;7.53;;;1.75;;
37288;SDS011;23174;49.462;11.000;2022-10-24T13:41:58;2.40;;;1.50;;
37288;SDS011;23174;49.462;11.000;2022-10-24T13:49:14;3.78;;;1.60;;
37288;SDS011;23174;49.462;11.000;2022-10-24T13:51:23;3.65;;;1.88;;
37288;SDS011;23174;49.462;11.000;2022-10-24T13:53:41;2.05;;;0.60;;
37288;SDS011;23174;49.462;11.000;2022-10-24T13:55:47;4.22;;;1.50;;
37288;SDS011;23174;49.462;11.000;2022-10-24T14:00:06;1.75;;;0.93;;
37288;SDS011;23174;49.462;11.000;2022-10-24T14:02:13;0.68;;;0.68;;
37288;SDS011;23174;49.462;11.000;2022-10-24T14:04:20;1.00;;;0.70;;
37288;SDS011;23174;49.462;11.000;2022-10-24T14:06:22;3.38;;;0.85;;
37288;SDS011;23174;49.462;11.000;2022-10-24T14:10:29;1.95;;;0.80;;
37288;SDS011;23174;49.462;11.000;2022-10-24T14:12:31;3.28;;;1.02;;